Time;durP1;ratioP1;P1;durP2;ratioP2;P2;SDS_P1;SDS_P2;PMS_P1;PMS_P2;Temp;Humidity;BMP_temperature;BMP_pressure;BME280_temperature;BME280_humidity;BME280_pressure;Samples;Min_cycle;Max_cycle;Signal;HPM_P1;HPM_P2
2022/12/24 00:00:57;;;;;;;6.93;1.27;;;12.00;45.10;;;;;;4946909;28;20466;-70
2022/12/24 00:03:24;;;;;;;6.07;1.37;;;12.00;45.10;;;;;;4943994;28;20467;-71
2022/12/24 00:05:51;;;;;;;5.50;1.20;;;11.90;45.00;;;;;;4945362;28;20486;-70
2022/12/24 00:08:18;;;;;;;3.77;1.17;;;11.90;45.30;;;;;;4943682;28;20475;-70
2022/12/24 00:10:50;;;;;;;4.73;1.33;;;11.90;45.30;;;;;;4947094;28;20462;-71
2022/12/24 00:13:16;;;;;;;4.30;1.50;;;11.90;45.50;;;;;;4944015;28;20467;-71
2022/12/24 00:15:43;;;;;;;3.87;0.93;;;11.90;45.30;;;;;;4943904;28;20482;-71
2022/12/24 00:18:10;;;;;;;5.97;0.90;;;11.80;45.30;;;;;;4942129;28;20462;-70
2022/12/24 00:20:37;;;;;;;4.53;1.10;;;11.80;44.90;;;;;;4945454;28;20488;-70
2022/12/24 00:23:03;;;;;;;3.80;1.00;;;11.80;45.30;;;;;;4942779;28;21165;-70
2022/12/24 00:25:30;;;;;;;4.77;1.13;;;11.80;45.50;;;;;;4945929;28;20467;-71
2022/12/24 00:27:58;;;;;;;4.87;1.30;;;11.70;45.60;;;;;;4947934;28;20463;-70
2022/12/24 00:30:25;;;;;;;3.93;1.20;;;11.70;45.40;;;;;;4943845;28;20454;-70
2022/12/24 00:32:52;;;;;;;4.43;1.10;;;11.70;45.50;;;;;;4943707;28;20976;-70
2022/12/24 00:35:18;;;;;;;4.03;1.33;;;11.70;45.50;;;;;;4946302;28;20471;-70
2022/12/24 00:37:47;;;;;;;5.27;1.20;;;11.70;45.30;;;;;;4945719;28;20467;-71
2022/12/24 00:40:14;;;;;;;7.83;1.30;;;11.70;44.40;;;;;;4944361;28;20506;-71
2022/12/24 00:42:41;;;;;;;4.90;1.30;;;11.70;44.20;;;;;;4942065;28;20464;-70
2022/12/24 00:45:10;;;;;;;4.60;0.90;;;11.70;43.70;;;;;;4946352;28;20967;-70
2022/12/24 00:47:37;;;;;;;4.30;1.27;;;11.70;43.10;;;;;;4940922;28;20486;-70
2022/12/24 00:50:04;;;;;;;4.33;0.80;;;11.70;42.60;;;;;;4944431;28;20459;-70
2022/12/24 00:52:31;;;;;;;3.90;0.90;;;11.70;42.40;;;;;;4945252;28;20985;-70
2022/12/24 00:54:58;;;;;;;5.57;1.20;;;11.70;42.40;;;;;;4945835;29;20471;-70
2022/12/24 00:57:25;;;;;;;5.10;1.23;;;11.60;42.20;;;;;;4943461;28;20490;-70
2022/12/24 00:59:51;;;;;;;3.83;0.97;;;11.60;42.10;;;;;;4944829;28;20482;-71
2022/12/24 01:02:20;;;;;;;4.33;1.13;;;11.60;42.10;;;;;;4939962;28;20482;-71
2022/12/24 01:07:30;;;;;;;4.47;1.10;;;11.50;42.20;;;;;;4948618;28;20472;-70
2022/12/24 01:09:57;;;;;;;6.07;0.90;;;11.50;42.50;;;;;;4952065;28;20458;-70
2022/12/24 01:12:24;;;;;;;3.90;1.20;;;11.40;42.40;;;;;;4949277;28;20462;-70
2022/12/24 01:14:51;;;;;;;4.30;1.00;;;11.50;42.80;;;;;;4945104;28;20467;-71
2022/12/24 01:17:18;;;;;;;5.67;1.33;;;11.40;42.60;;;;;;4948046;28;20486;-70
2022/12/24 01:19:46;;;;;;;4.57;1.27;;;11.50;42.70;;;;;;4948815;28;20963;-71
2022/12/24 01:22:12;;;;;;;6.60;1.50;;;11.40;42.80;;;;;;4948650;28;20469;-70
2022/12/24 01:24:41;;;;;;;5.00;1.40;;;11.40;43.00;;;;;;4948075;28;20466;-70
2022/12/24 01:27:08;;;;;;;7.23;1.50;;;11.40;43.30;;;;;;4946207;28;20611;-70
2022/12/24 01:29:35;;;;;;;5.63;1.30;;;11.40;43.50;;;;;;4949604;28;20466;-69
2022/12/24 01:32:01;;;;;;;3.90;1.10;;;11.40;43.80;;;;;;4943791;28;20994;-70
2022/12/24 01:34:28;;;;;;;4.30;1.30;;;11.40;43.90;;;;;;4947061;28;20474;-69
2022/12/24 01:36:56;;;;;;;5.07;1.30;;;11.40;43.90;;;;;;4947981;28;20978;-70
2022/12/24 01:39:23;;;;;;;4.80;1.33;;;11.40;43.80;;;;;;4951315;28;20467;-70
2022/12/24 01:44:40;;;;;;;4.90;1.20;;;11.40;44.20;;;;;;4932570;28;20451;-70
2022/12/24 01:47:11;;;;;;;6.17;1.13;;;11.40;44.50;;;;;;4942653;28;20491;-69
2022/12/24 01:49:41;;;;;;;4.40;1.40;;;11.40;44.80;;;;;;4946587;28;20470;-70
2022/12/24 01:52:14;;;;;;;5.10;1.40;;;11.40;45.10;;;;;;4943948;28;20473;-70
2022/12/24 01:54:46;;;;;;;5.83;1.57;;;11.40;45.40;;;;;;4945420;28;20989;-70
2022/12/24 01:57:18;;;;;;;6.17;1.40;;;11.40;45.70;;;;;;4950336;28;20533;-70
2022/12/24 01:59:49;;;;;;;4.27;1.10;;;11.30;45.90;;;;;;4947505;28;20479;-70
2022/12/24 02:02:16;;;;;;;4.80;1.43;;;11.40;46.00;;;;;;4945779;28;20485;-70
2022/12/24 02:04:50;;;;;;;4.50;1.43;;;11.30;46.70;;;;;;4945459;28;20462;-70
2022/12/24 02:07:18;;;;;;;7.20;1.53;;;11.30;46.20;;;;;;4949578;28;20493;-70
2022/12/24 02:09:47;;;;;;;4.73;1.70;;;11.30;46.10;;;;;;4946336;28;20994;-70
2022/12/24 02:12:14;;;;;;;5.90;1.40;;;11.30;45.90;;;;;;4947634;28;20474;-70
2022/12/24 02:14:40;;;;;;;6.20;1.60;;;11.30;45.70;;;;;;4947776;28;20986;-70
2022/12/24 02:17:18;;;;;;;5.20;1.40;;;11.30;45.40;;;;;;4942584;28;20489;-71
2022/12/24 02:20:22;;;;;;;4.43;1.20;;;11.30;45.20;;;;;;4948409;28;20471;-70
2022/12/24 02:23:09;;;;;;;5.80;1.20;;;11.30;44.90;;;;;;4944110;29;20963;-70
2022/12/24 02:25:46;;;;;;;6.37;1.20;;;11.30;44.50;;;;;;4946524;28;20478;-70
2022/12/24 02:28:20;;;;;;;4.30;1.20;;;11.30;44.40;;;;;;4947568;28;20477;-70
2022/12/24 02:30:53;;;;;;;7.47;1.30;;;11.30;44.10;;;;;;4941388;28;20482;-70
2022/12/24 02:33:27;;;;;;;5.33;1.93;;;11.30;44.00;;;;;;4949017;29;20838;-70
2022/12/24 02:36:02;;;;;;;5.87;1.17;;;11.30;43.90;;;;;;4944558;28;20482;-71
2022/12/24 02:38:32;;;;;;;4.90;1.30;;;11.30;43.70;;;;;;4947061;28;20467;-70
2022/12/24 02:41:03;;;;;;;5.23;1.10;;;11.30;43.40;;;;;;4947380;29;20475;-70
2022/12/24 02:43:35;;;;;;;5.80;1.50;;;11.20;43.40;;;;;;4946462;28;20466;-69
2022/12/24 02:46:07;;;;;;;5.40;1.40;;;11.20;43.20;;;;;;4942672;29;20588;-70
2022/12/24 02:48:36;;;;;;;6.70;1.57;;;11.20;42.90;;;;;;4947274;28;20462;-70
2022/12/24 02:51:06;;;;;;;5.77;1.63;;;11.20;42.80;;;;;;4939899;28;20481;-70
2022/12/24 02:53:34;;;;;;;7.47;1.40;;;11.20;42.40;;;;;;4947052;28;20463;-70
2022/12/24 02:56:18;;;;;;;8.00;1.30;;;11.10;42.20;;;;;;4944284;28;20495;-70
2022/12/24 02:58:59;;;;;;;5.63;2.03;;;11.10;42.20;;;;;;4948004;28;22060;-70
2022/12/24 03:01:37;;;;;;;10.10;2.37;;;11.10;42.10;;;;;;4944877;28;20493;-69
2022/12/24 03:04:14;;;;;;;4.53;1.30;;;11.10;41.90;;;;;;4945524;28;20458;-70
2022/12/24 03:06:48;;;;;;;4.47;1.20;;;11.10;41.80;;;;;;4945229;28;20490;-70
2022/12/24 03:09:25;;;;;;;6.67;1.50;;;11.10;41.60;;;;;;4946818;28;20544;-70
2022/12/24 03:12:10;;;;;;;6.83;1.30;;;11.10;41.70;;;;;;4946463;28;20466;-70
2022/12/24 03:14:40;;;;;;;6.50;1.43;;;11.10;41.70;;;;;;4944872;28;20475;-70
2022/12/24 03:17:09;;;;;;;5.40;1.20;;;11.10;41.50;;;;;;4945396;28;20494;-70
2022/12/24 03:19:37;;;;;;;5.03;1.37;;;11.10;41.60;;;;;;4946710;28;20462;-70
2022/12/24 03:22:09;;;;;;;5.37;1.47;;;11.00;41.50;;;;;;4946441;28;20482;-70
2022/12/24 03:24:36;;;;;;;4.50;1.10;;;11.00;41.70;;;;;;4945590;28;20466;-70
2022/12/24 03:27:04;;;;;;;7.37;1.40;;;11.00;41.40;;;;;;4945999;28;20882;-70
2022/12/24 03:29:32;;;;;;;5.30;1.30;;;11.00;41.70;;;;;;4947582;28;20486;-70
2022/12/24 03:32:01;;;;;;;7.33;2.03;;;11.00;41.50;;;;;;4946347;28;20483;-70
2022/12/24 03:34:29;;;;;;;5.53;1.67;;;11.00;41.70;;;;;;4945162;28;20489;-70
2022/12/24 03:36:57;;;;;;;6.47;1.70;;;11.00;41.80;;;;;;4943833;28;20509;-70
2022/12/24 03:39:24;;;;;;;5.70;1.77;;;10.90;41.90;;;;;;4943776;28;20469;-70
2022/12/24 03:41:50;;;;;;;7.27;1.63;;;10.90;42.00;;;;;;4945809;28;20988;-70
2022/12/24 03:44:17;;;;;;;6.23;1.47;;;10.90;42.20;;;;;;4947164;28;20463;-70
2022/12/24 03:46:44;;;;;;;4.60;1.27;;;10.90;42.30;;;;;;4939524;28;20479;-70
2022/12/24 03:49:11;;;;;;;8.47;1.27;;;10.80;42.20;;;;;;4945330;28;20470;-70
2022/12/24 03:51:39;;;;;;;6.43;1.87;;;10.90;42.10;;;;;;4943102;28;20468;-70
2022/12/24 03:54:05;;;;;;;12.80;2.67;;;10.90;41.90;;;;;;4942806;28;20462;-70
2022/12/24 03:56:32;;;;;;;9.53;1.73;;;10.80;42.30;;;;;;4943108;28;20502;-70
2022/12/24 03:58:59;;;;;;;6.03;1.40;;;10.80;42.10;;;;;;4947287;28;20971;-70
2022/12/24 04:01:26;;;;;;;7.03;1.47;;;10.80;42.30;;;;;;4943573;28;21236;-70
2022/12/24 04:03:53;;;;;;;8.50;1.80;;;10.80;42.50;;;;;;4942059;28;20474;-70
2022/12/24 04:06:19;;;;;;;10.07;2.30;;;10.80;42.40;;;;;;4940513;28;21005;-70
2022/12/24 04:08:48;;;;;;;5.87;1.60;;;10.80;42.50;;;;;;4943936;28;20470;-70
2022/12/24 04:11:16;;;;;;;5.27;1.60;;;10.70;42.60;;;;;;4942059;28;20493;-70
2022/12/24 04:13:42;;;;;;;4.20;1.40;;;10.70;42.60;;;;;;4945328;28;20992;-70
2022/12/24 04:16:13;;;;;;;5.57;1.67;;;10.70;42.60;;;;;;4944484;28;20478;-70
2022/12/24 04:18:41;;;;;;;7.83;1.60;;;10.80;42.70;;;;;;4939190;28;20485;-70
2022/12/24 04:21:08;;;;;;;5.83;1.60;;;10.80;42.80;;;;;;4945870;28;20531;-70
2022/12/24 04:23:36;;;;;;;7.00;1.90;;;10.70;42.80;;;;;;4946260;28;21160;-70
2022/12/24 04:26:06;;;;;;;6.57;1.93;;;10.70;42.80;;;;;;4947061;28;20493;-70
2022/12/24 04:28:34;;;;;;;9.10;2.03;;;10.70;43.00;;;;;;4945560;28;20466;-70
2022/12/24 04:31:02;;;;;;;7.20;1.97;;;10.80;42.90;;;;;;4945031;28;20471;-70
2022/12/24 04:33:29;;;;;;;7.33;1.50;;;10.80;43.00;;;;;;4942175;28;21159;-70
2022/12/24 04:35:58;;;;;;;5.77;1.43;;;10.80;43.00;;;;;;4943011;28;20847;-71
2022/12/24 04:38:24;;;;;;;7.10;2.20;;;10.80;43.10;;;;;;4943319;28;20473;-70
2022/12/24 04:40:59;;;;;;;6.50;1.67;;;10.80;43.20;;;;;;4950349;28;20482;-70
2022/12/24 04:43:27;;;;;;;5.60;1.53;;;10.80;43.40;;;;;;4950275;28;20978;-70
2022/12/24 04:45:54;;;;;;;6.03;1.60;;;10.80;43.10;;;;;;4946968;28;20517;-70
2022/12/24 04:48:21;;;;;;;5.83;1.37;;;10.80;43.10;;;;;;4949523;28;20474;-70
2022/12/24 04:50:48;;;;;;;8.70;1.90;;;10.80;43.20;;;;;;4948526;28;20466;-70
2022/12/24 04:53:14;;;;;;;6.47;1.73;;;10.80;43.20;;;;;;4950033;28;20467;-71
2022/12/24 04:55:44;;;;;;;4.83;1.40;;;10.80;43.10;;;;;;4947394;28;20490;-70
2022/12/24 04:58:11;;;;;;;6.70;1.90;;;10.70;43.40;;;;;;4951312;28;20493;-70
2022/12/24 05:00:40;;;;;;;15.73;1.90;;;10.70;43.50;;;;;;4945902;28;20482;-70
2022/12/24 05:03:07;;;;;;;7.07;2.70;;;10.70;43.50;;;;;;4947884;28;20473;-69
2022/12/24 05:05:33;;;;;;;7.33;2.03;;;10.70;43.50;;;;;;4944031;28;20549;-70
2022/12/24 05:08:00;;;;;;;5.90;1.73;;;10.70;43.60;;;;;;4949818;28;20466;-70
2022/12/24 05:10:27;;;;;;;8.27;2.27;;;10.70;43.60;;;;;;4947756;28;20902;-70
2022/12/24 05:12:54;;;;;;;7.33;1.90;;;10.70;44.20;;;;;;4949421;28;20492;-70
2022/12/24 05:15:20;;;;;;;6.73;1.87;;;10.70;43.40;;;;;;4947181;28;21090;-70
2022/12/24 05:17:49;;;;;;;8.93;2.60;;;10.60;43.50;;;;;;4949797;28;20489;-70
2022/12/24 05:20:16;;;;;;;6.40;2.00;;;10.60;43.60;;;;;;4941262;28;20509;-70
2022/12/24 05:28:16;;;;;;;6.03;1.90;;;10.70;43.40;;;;;;4949650;28;20513;-70
2022/12/24 05:30:44;;;;;;;5.20;1.70;;;10.70;43.30;;;;;;4946066;28;20474;-70
2022/12/24 05:33:12;;;;;;;4.87;1.50;;;10.60;43.50;;;;;;4942364;28;21166;-71
2022/12/24 05:35:38;;;;;;;8.93;2.20;;;10.60;43.40;;;;;;4947490;28;20486;-71
2022/12/24 05:38:05;;;;;;;9.30;1.97;;;10.60;43.40;;;;;;4949896;28;20466;-70
2022/12/24 05:40:32;;;;;;;8.53;1.93;;;10.60;43.60;;;;;;4945921;28;20467;-70
2022/12/24 05:42:59;;;;;;;6.10;1.60;;;10.70;43.20;;;;;;4946313;28;20482;-70
2022/12/24 05:45:25;;;;;;;5.03;2.00;;;10.60;43.20;;;;;;4946305;28;20469;-71
2022/12/24 05:47:52;;;;;;;6.37;1.57;;;10.70;42.90;;;;;;4948530;28;20482;-70
2022/12/24 05:50:20;;;;;;;7.40;1.67;;;10.60;43.00;;;;;;4947784;28;20463;-70
2022/12/24 05:52:47;;;;;;;7.50;1.70;;;10.60;42.90;;;;;;4946767;28;20489;-70
2022/12/24 05:55:14;;;;;;;9.20;1.87;;;10.70;42.70;;;;;;4945990;28;20458;-70
2022/12/24 05:57:41;;;;;;;12.77;2.00;;;10.60;42.50;;;;;;4949748;28;20493;-71
2022/12/24 06:00:09;;;;;;;5.67;1.70;;;10.60;42.40;;;;;;4946504;28;20462;-70
2022/12/24 06:02:36;;;;;;;4.97;1.57;;;10.60;42.10;;;;;;4944552;28;21057;-70
2022/12/24 06:05:02;;;;;;;6.03;2.10;;;10.60;42.00;;;;;;4948572;28;20479;-70
2022/12/24 06:07:30;;;;;;;5.20;1.83;;;10.70;41.70;;;;;;4946414;28;20482;-70
2022/12/24 06:09:57;;;;;;;7.90;1.77;;;10.60;41.30;;;;;;4947729;28;20458;-70
2022/12/24 06:12:24;;;;;;;6.80;1.93;;;10.60;41.30;;;;;;4944640;28;20459;-70
2022/12/24 06:14:51;;;;;;;7.80;2.30;;;10.60;41.00;;;;;;4948712;28;20459;-70
2022/12/24 06:17:17;;;;;;;7.67;1.83;;;10.60;41.10;;;;;;4944762;28;20487;-70
2022/12/24 06:19:44;;;;;;;4.80;1.50;;;10.60;41.10;;;;;;4947789;28;20475;-70
2022/12/24 06:22:11;;;;;;;4.50;1.63;;;10.60;41.10;;;;;;4946117;28;20489;-70
2022/12/24 06:24:39;;;;;;;5.67;1.60;;;10.60;40.80;;;;;;4944803;28;20469;-70
2022/12/24 06:27:05;;;;;;;6.60;1.73;;;10.60;40.90;;;;;;4947336;28;20494;-70
2022/12/24 06:29:32;;;;;;;6.17;1.47;;;10.60;41.00;;;;;;4942097;28;20462;-69
2022/12/24 06:31:59;;;;;;;12.17;2.13;;;10.60;40.80;;;;;;4944450;28;20489;-70
2022/12/24 06:34:26;;;;;;;6.60;2.10;;;10.60;40.60;;;;;;4941051;28;20470;-70
2022/12/24 06:36:53;;;;;;;8.77;1.50;;;10.60;40.60;;;;;;4947357;28;20482;-70
2022/12/24 06:39:19;;;;;;;7.80;1.87;;;10.60;40.40;;;;;;4945486;28;21287;-71
2022/12/24 06:41:47;;;;;;;5.90;1.63;;;10.60;40.20;;;;;;4945011;28;20479;-71
2022/12/24 06:44:14;;;;;;;6.83;1.63;;;10.50;40.50;;;;;;4947217;28;20463;-69
2022/12/24 06:46:41;;;;;;;8.17;1.73;;;10.50;40.30;;;;;;4943371;28;20482;-69
2022/12/24 06:49:08;;;;;;;7.03;2.27;;;10.60;40.30;;;;;;4944756;28;20463;-71
2022/12/24 06:51:34;;;;;;;9.43;1.67;;;10.50;40.40;;;;;;4946825;28;20471;-70
2022/12/24 06:54:01;;;;;;;11.17;2.13;;;10.50;40.60;;;;;;4944100;28;20469;-68
2022/12/24 06:56:28;;;;;;;6.77;2.40;;;10.50;40.20;;;;;;4942007;28;20486;-69
2022/12/24 06:58:56;;;;;;;11.63;2.00;;;10.50;40.20;;;;;;4941821;28;20903;-72
2022/12/24 07:01:23;;;;;;;7.10;1.77;;;10.50;40.10;;;;;;4941306;28;20483;-71
2022/12/24 07:03:50;;;;;;;8.53;1.90;;;10.50;40.00;;;;;;4941957;28;20502;-71
2022/12/24 07:06:21;;;;;;;4.77;1.70;;;10.50;39.70;;;;;;4947167;28;20519;-67
2022/12/24 07:08:48;;;;;;;10.10;1.73;;;10.50;39.60;;;;;;4947351;28;20459;-67
2022/12/24 07:11:14;;;;;;;4.73;1.90;;;10.50;39.50;;;;;;4946815;28;20498;-72
2022/12/24 07:13:41;;;;;;;6.97;1.87;;;10.50;39.40;;;;;;4945497;28;20815;-71
2022/12/24 07:16:09;;;;;;;9.03;2.00;;;10.50;39.40;;;;;;4949127;28;20487;-69
2022/12/24 07:18:36;;;;;;;10.10;1.70;;;10.50;39.40;;;;;;4947335;28;20482;-71
2022/12/24 07:21:05;;;;;;;8.10;1.73;;;10.50;39.30;;;;;;4947008;28;20473;-69
2022/12/24 07:23:31;;;;;;;12.23;2.37;;;10.50;39.20;;;;;;4945931;28;20490;-70
2022/12/24 07:26:00;;;;;;;7.43;1.77;;;10.50;38.90;;;;;;4945634;28;20486;-69
2022/12/24 07:28:27;;;;;;;8.93;2.07;;;10.50;38.90;;;;;;4946520;28;20539;-69
2022/12/24 07:30:54;;;;;;;6.50;2.63;;;10.50;39.10;;;;;;4945849;28;20475;-71
2022/12/24 07:33:22;;;;;;;5.90;1.80;;;10.50;39.10;;;;;;4946772;28;20462;-68
2022/12/24 07:35:49;;;;;;;12.33;4.50;;;10.40;38.90;;;;;;4946221;28;20482;-69
2022/12/24 07:38:15;;;;;;;8.10;1.40;;;10.40;38.90;;;;;;4940073;28;20834;-69
2022/12/24 07:40:42;;;;;;;5.37;1.50;;;10.50;38.90;;;;;;4943946;28;20838;-69
2022/12/24 07:43:09;;;;;;;7.43;1.83;;;10.40;38.60;;;;;;4944604;28;20489;-69
2022/12/24 07:45:35;;;;;;;12.77;2.47;;;10.50;38.50;;;;;;4944601;28;20469;-70
2022/12/24 07:48:02;;;;;;;10.57;2.33;;;10.50;38.10;;;;;;4946250;28;20474;-70
2022/12/24 07:50:30;;;;;;;7.17;1.77;;;10.50;37.70;;;;;;4945055;28;20467;-69
2022/12/24 07:52:57;;;;;;;6.83;2.20;;;10.50;37.70;;;;;;4944724;28;20459;-69
2022/12/24 07:55:24;;;;;;;7.17;1.30;;;10.50;37.60;;;;;;4945824;28;20463;-69
2022/12/24 07:57:51;;;;;;;6.30;1.50;;;10.50;37.40;;;;;;4939238;28;20469;-70
2022/12/24 08:00:18;;;;;;;7.60;1.90;;;10.50;37.50;;;;;;4943736;28;20493;-68
2022/12/24 08:02:45;;;;;;;7.97;1.93;;;10.50;37.40;;;;;;4942180;28;20490;-70
2022/12/24 08:05:11;;;;;;;7.40;1.77;;;10.50;37.60;;;;;;4942563;28;20466;-70
2022/12/24 08:07:40;;;;;;;9.20;1.77;;;10.50;37.20;;;;;;4943099;28;20501;-70
2022/12/24 08:10:08;;;;;;;8.33;2.60;;;10.60;37.30;;;;;;4941294;28;20462;-71
2022/12/24 08:12:34;;;;;;;13.03;2.00;;;10.60;37.40;;;;;;4945586;28;20470;-73
2022/12/24 08:15:01;;;;;;;9.43;3.03;;;10.60;37.30;;;;;;4946526;28;20473;-70
2022/12/24 08:17:28;;;;;;;10.10;2.17;;;10.60;37.20;;;;;;4944795;28;20486;-71
2022/12/24 08:19:54;;;;;;;8.47;1.80;;;10.70;37.00;;;;;;4944014;28;20482;-73
2022/12/24 08:22:21;;;;;;;8.67;1.83;;;10.70;37.10;;;;;;4943090;28;20594;-70
2022/12/24 08:24:49;;;;;;;5.17;1.87;;;10.70;36.90;;;;;;4946615;28;20854;-70
2022/12/24 08:27:16;;;;;;;6.60;1.90;;;10.70;36.80;;;;;;4941919;28;20522;-73
2022/12/24 08:29:43;;;;;;;9.53;2.50;;;10.80;36.70;;;;;;4943513;28;20470;-73
2022/12/24 08:32:10;;;;;;;9.13;2.17;;;10.80;36.80;;;;;;4943970;28;20488;-73
2022/12/24 08:34:37;;;;;;;9.37;1.73;;;10.90;36.90;;;;;;4943567;28;20558;-76
2022/12/24 08:37:03;;;;;;;7.13;1.97;;;11.00;36.60;;;;;;4943650;28;21017;-73
2022/12/24 08:39:30;;;;;;;8.50;1.80;;;11.10;36.30;;;;;;4947772;28;20466;-72
2022/12/24 08:41:58;;;;;;;6.33;2.27;;;11.20;36.20;;;;;;4942003;28;20466;-73
2022/12/24 08:44:25;;;;;;;8.33;2.03;;;11.30;36.00;;;;;;4942669;28;20462;-71
2022/12/24 08:46:52;;;;;;;8.90;2.10;;;11.40;35.80;;;;;;4946986;28;20486;-74
2022/12/24 08:49:18;;;;;;;7.07;1.90;;;11.40;35.40;;;;;;4945936;28;20816;-74
2022/12/24 08:51:45;;;;;;;10.07;3.20;;;11.60;35.20;;;;;;4947168;28;20470;-71
2022/12/24 08:54:12;;;;;;;8.47;1.90;;;11.60;34.90;;;;;;4944026;28;20545;-72
2022/12/24 08:56:39;;;;;;;7.30;1.90;;;11.60;34.60;;;;;;4946168;28;20490;-72
2022/12/24 08:59:07;;;;;;;5.60;1.57;;;11.70;34.70;;;;;;4947381;28;20470;-73
2022/12/24 09:01:34;;;;;;;7.93;1.70;;;11.70;34.70;;;;;;4943243;28;20484;-74
2022/12/24 09:04:02;;;;;;;7.33;1.70;;;11.70;34.80;;;;;;4946391;28;20486;-72
2022/12/24 09:06:28;;;;;;;10.00;2.13;;;11.70;35.00;;;;;;4945169;28;20482;-72
2022/12/24 09:08:55;;;;;;;7.17;1.90;;;11.80;35.00;;;;;;4944401;28;20474;-72
2022/12/24 09:11:22;;;;;;;6.23;1.30;;;11.70;35.20;;;;;;4945538;28;20478;-72
2022/12/24 09:13:49;;;;;;;7.57;1.60;;;11.70;35.70;;;;;;4945184;28;20462;-72
2022/12/24 09:16:17;;;;;;;7.10;2.07;;;11.70;36.00;;;;;;4945489;28;20478;-73
2022/12/24 09:18:44;;;;;;;6.37;1.60;;;11.70;36.40;;;;;;4943491;28;20463;-72
2022/12/24 09:21:14;;;;;;;6.50;1.50;;;11.70;36.40;;;;;;4945155;28;20489;-73
2022/12/24 09:23:42;;;;;;;6.30;1.63;;;11.70;36.30;;;;;;4943480;28;20641;-72
2022/12/24 09:26:13;;;;;;;5.93;1.70;;;11.70;36.40;;;;;;4944129;28;20854;-72
2022/12/24 09:28:40;;;;;;;5.80;2.10;;;11.70;36.60;;;;;;4947926;28;20467;-72
2022/12/24 09:31:08;;;;;;;6.10;1.63;;;11.80;36.70;;;;;;4950038;28;20896;-72
2022/12/24 09:33:38;;;;;;;6.97;1.57;;;12.00;37.00;;;;;;4946635;28;20490;-72
2022/12/24 09:36:06;;;;;;;4.83;1.40;;;12.50;36.80;;;;;;4947494;28;20486;-72
2022/12/24 09:38:33;;;;;;;5.13;1.63;;;12.90;34.60;;;;;;4944363;28;20466;-74
2022/12/24 09:41:01;;;;;;;6.63;1.30;;;13.10;33.50;;;;;;4948464;28;20463;-71
2022/12/24 09:43:32;;;;;;;7.50;2.10;;;13.20;32.40;;;;;;4943550;28;20486;-73
2022/12/24 09:46:07;;;;;;;4.70;1.30;;;13.40;31.70;;;;;;4949347;28;20493;-74
2022/12/24 09:48:40;;;;;;;5.47;1.23;;;13.60;31.10;;;;;;4947567;28;20466;-74
2022/12/24 09:51:10;;;;;;;6.53;1.27;;;13.80;31.10;;;;;;4949470;28;20467;-72
2022/12/24 09:53:42;;;;;;;9.90;1.87;;;14.20;30.00;;;;;;4947435;28;20469;-71
2022/12/24 09:56:15;;;;;;;4.53;1.00;;;14.30;28.30;;;;;;4947186;28;20510;-73
2022/12/24 09:58:45;;;;;;;4.50;0.90;;;14.40;28.20;;;;;;4946470;28;20466;-73
2022/12/24 10:01:13;;;;;;;5.20;0.80;;;14.60;27.10;;;;;;4946973;28;20490;-74
2022/12/24 10:03:41;;;;;;;4.23;1.13;;;14.70;25.70;;;;;;4947281;28;20483;-71
2022/12/24 10:06:13;;;;;;;5.17;1.87;;;14.70;25.40;;;;;;4948180;28;20489;-72
2022/12/24 10:08:53;;;;;;;6.87;1.00;;;14.60;25.00;;;;;;4948214;28;20462;-76
2022/12/24 10:11:26;;;;;;;4.90;0.80;;;14.50;25.70;;;;;;4944414;28;21010;-74
2022/12/24 10:14:03;;;;;;;6.27;1.60;;;14.50;25.80;;;;;;4943174;28;20938;-73
2022/12/24 10:16:41;;;;;;;5.13;1.00;;;14.50;25.80;;;;;;4947704;28;20503;-73
2022/12/24 10:19:17;;;;;;;5.70;1.47;;;14.50;26.10;;;;;;4947055;28;20509;-72
2022/12/24 10:21:53;;;;;;;4.80;1.17;;;14.60;25.80;;;;;;4945316;28;20467;-70
2022/12/24 10:24:25;;;;;;;5.67;1.10;;;14.80;25.90;;;;;;4943039;28;20486;-69
2022/12/24 10:26:57;;;;;;;6.33;1.03;;;15.20;25.40;;;;;;4946062;28;20482;-68
2022/12/24 10:29:27;;;;;;;5.97;1.13;;;15.70;24.30;;;;;;4945281;28;20561;-67
2022/12/24 10:31:59;;;;;;;5.57;1.27;;;16.20;22.60;;;;;;4932514;28;20478;-70
2022/12/24 10:34:31;;;;;;;4.70;0.90;;;16.60;21.60;;;;;;4941219;28;20463;-71
2022/12/24 10:36:59;;;;;;;6.50;1.23;;;17.20;19.70;;;;;;4945544;28;20479;-72
2022/12/24 10:39:27;;;;;;;4.57;0.90;;;17.90;18.60;;;;;;4939461;28;20463;-72
2022/12/24 10:41:56;;;;;;;5.77;1.33;;;18.50;16.00;;;;;;4946257;28;20773;-73
2022/12/24 10:44:27;;;;;;;8.87;1.40;;;18.80;15.40;;;;;;4943638;28;20585;-74
2022/12/24 10:46:54;;;;;;;7.23;1.20;;;19.00;14.90;;;;;;4943682;28;20497;-75
2022/12/24 10:49:31;;;;;;;4.97;1.40;;;19.50;13.00;;;;;;4951316;28;20473;-84
2022/12/24 10:52:03;;;;;;;6.57;1.20;;;19.80;12.20;;;;;;4942822;28;20462;-82
2022/12/24 10:54:37;;;;;;;4.90;1.30;;;19.50;12.00;;;;;;4951108;28;20846;-72
2022/12/24 10:57:05;;;;;;;5.53;1.43;;;18.80;12.50;;;;;;4943864;28;21026;-68
2022/12/24 10:59:42;;;;;;;6.70;1.43;;;18.20;14.00;;;;;;4947224;28;20981;-70
2022/12/24 11:02:27;;;;;;;6.90;1.27;;;17.70;14.60;;;;;;4944569;28;20900;-69
2022/12/24 11:04:55;;;;;;;5.83;1.80;;;17.30;15.70;;;;;;4946875;28;21011;-71
2022/12/24 11:07:24;;;;;;;7.13;1.67;;;17.10;16.50;;;;;;4947055;28;20490;-72
2022/12/24 11:09:56;;;;;;;5.30;2.27;;;16.80;16.50;;;;;;4947273;28;20474;-76
2022/12/24 11:12:25;;;;;;;4.73;1.07;;;16.40;17.70;;;;;;4939550;28;20858;-71
2022/12/24 11:15:01;;;;;;;7.30;1.30;;;16.20;17.90;;;;;;4934114;28;20455;-69
2022/12/24 11:17:28;;;;;;;5.67;1.27;;;15.80;18.70;;;;;;4938440;28;20521;-73
2022/12/24 11:19:57;;;;;;;4.60;1.00;;;15.60;19.90;;;;;;4940908;28;20469;-74
2022/12/24 11:22:26;;;;;;;6.13;1.30;;;15.30;19.90;;;;;;4941707;28;20473;-75
2022/12/24 11:25:04;;;;;;;4.60;1.60;;;15.00;20.50;;;;;;4934428;28;20486;-70
2022/12/24 11:27:43;;;;;;;5.50;1.10;;;14.80;21.50;;;;;;4941001;28;20506;-78
2022/12/24 11:30:25;;;;;;;4.60;1.20;;;14.60;22.30;;;;;;4947589;28;20463;-68
2022/12/24 11:33:16;;;;;;;4.20;1.10;;;14.40;22.60;;;;;;4944557;28;20500;-68
2022/12/24 11:35:48;;;;;;;5.23;1.57;;;14.20;23.50;;;;;;4945079;28;21017;-66
2022/12/24 11:38:21;;;;;;;5.50;1.27;;;14.10;24.50;;;;;;4944799;28;20967;-69
2022/12/24 11:40:50;;;;;;;6.27;1.50;;;14.00;24.50;;;;;;4944015;28;20477;-71
2022/12/24 11:43:19;;;;;;;5.40;1.37;;;14.00;24.70;;;;;;4945707;28;20474;-72
2022/12/24 11:45:50;;;;;;;5.40;1.10;;;14.00;24.80;;;;;;4946453;28;20492;-76
2022/12/24 11:48:29;;;;;;;3.60;0.70;;;14.00;24.50;;;;;;4947162;28;20828;-71
2022/12/24 11:50:59;;;;;;;6.07;1.10;;;14.10;24.40;;;;;;4949442;28;20568;-67
2022/12/24 11:53:34;;;;;;;6.77;1.33;;;14.10;24.20;;;;;;4947395;28;20561;-67
2022/12/24 11:56:05;;;;;;;5.87;2.00;;;14.00;24.40;;;;;;4944813;28;20500;-66
2022/12/24 11:58:37;;;;;;;4.60;1.30;;;14.10;25.00;;;;;;4947878;28;20471;-67
2022/12/24 12:01:15;;;;;;;6.13;1.47;;;14.10;24.80;;;;;;4947856;28;20486;-65
2022/12/24 12:03:45;;;;;;;4.67;1.30;;;14.10;24.80;;;;;;4941243;28;20482;-66
2022/12/24 12:06:24;;;;;;;6.00;1.50;;;14.00;24.60;;;;;;4949217;28;20851;-69
2022/12/24 12:08:55;;;;;;;5.60;1.30;;;13.90;24.90;;;;;;4947927;28;20469;-70
2022/12/24 12:11:25;;;;;;;5.43;1.10;;;13.80;25.40;;;;;;4949116;28;21145;-64
2022/12/24 12:13:53;;;;;;;6.50;1.50;;;13.70;25.60;;;;;;4942981;28;20450;-63
2022/12/24 12:16:25;;;;;;;4.90;1.40;;;13.60;25.70;;;;;;4946907;28;20483;-66
2022/12/24 12:18:57;;;;;;;5.87;1.10;;;13.60;26.40;;;;;;4945897;28;20459;-69
2022/12/24 12:21:32;;;;;;;5.80;1.17;;;14.00;25.70;;;;;;4943275;28;20831;-69
2022/12/24 12:24:03;;;;;;;7.43;1.37;;;14.50;24.50;;;;;;4938900;28;20558;-71
2022/12/24 12:26:32;;;;;;;4.80;1.27;;;14.40;24.30;;;;;;4942699;28;21008;-67
2022/12/24 12:29:01;;;;;;;4.53;1.13;;;14.30;24.30;;;;;;4946913;28;20467;-70
2022/12/24 12:31:34;;;;;;;4.87;1.30;;;14.10;24.60;;;;;;4946813;28;20497;-70
2022/12/24 12:34:05;;;;;;;4.73;1.27;;;14.10;24.90;;;;;;4943800;28;20465;-71
2022/12/24 12:36:37;;;;;;;6.30;1.43;;;14.20;24.10;;;;;;4944274;28;20513;-70
2022/12/24 12:39:04;;;;;;;4.77;1.10;;;14.00;24.20;;;;;;4923897;28;20462;-69
2022/12/24 12:41:49;;;;;;;5.50;1.40;;;13.90;25.40;;;;;;4943627;28;20474;-68
2022/12/24 12:44:47;;;;;;;5.67;1.70;;;13.90;25.50;;;;;;4937315;28;20500;-71
2022/12/24 12:47:37;;;;;;;5.40;1.43;;;13.70;25.50;;;;;;4948079;28;21033;-71
2022/12/24 12:50:14;;;;;;;5.93;1.37;;;13.50;25.20;;;;;;4946463;28;20469;-71
2022/12/24 12:52:58;;;;;;;4.80;1.33;;;13.30;26.20;;;;;;4944659;28;20470;-70
2022/12/24 12:55:37;;;;;;;5.50;1.90;;;13.20;26.30;;;;;;4947394;28;20463;-71
2022/12/24 12:58:10;;;;;;;6.17;1.27;;;13.10;26.50;;;;;;4943213;28;20466;-70
2022/12/24 13:00:40;;;;;;;6.27;1.10;;;13.00;27.40;;;;;;4948404;28;20469;-71
2022/12/24 13:03:44;;;;;;;4.13;1.13;;;13.00;27.60;;;;;;4949097;28;20462;-71
2022/12/24 13:06:28;;;;;;;4.57;1.30;;;12.90;27.80;;;;;;4944612;28;20490;-72
2022/12/24 13:09:33;;;;;;;8.00;1.60;;;12.90;28.00;;;;;;4950606;28;20466;-69